Terminal Aerodrome Forecast
Issued by NWS

Home | Current Version | Previous Version | Text Only | Print | Product List | Glossary Off
Versions: 1 2 3 4 5 6 7 8 9 10 11 12

170
FTUS43 KMPX 272326
TAFRWF
TAF
KRWF 272326Z 2800/2824 17014G20KT P6SM VCSH SCT110
     FM280430 16015G25KT 6SM SHRA BR VCTS BKN035CB OVC050
      TEMPO 2805/2809 3SM TSRA BR BKN020CB
     FM281100 20012G21KT P6SM -SHRA BKN015 OVC040
     FM281500 24013G23KT P6SM SCT015 BKN025
     FM281800 27013KT P6SM BKN045
     FM282100 30013KT P6SM SCT050=

USA.gov is the U.S. government's official web portal to all federal, state and local government web resources and services.